createdAt,value
2018-07-24T00:01:23.476Z,1.00
2018-07-24T00:03:51.750Z,1.00
2018-07-24T00:06:19.919Z,1.00
2018-07-24T00:08:48.063Z,1.00
2018-07-24T00:13:44.125Z,1.00
2018-07-24T00:16:12.244Z,1.00
2018-07-24T00:18:40.406Z,1.00
2018-07-24T00:21:08.560Z,1.00
2018-07-24T00:23:36.700Z,1.00
2018-07-24T00:26:04.851Z,1.00
2018-07-24T00:28:33.337Z,1.00
2018-07-24T00:31:01.463Z,1.00
2018-07-24T00:33:29.595Z,1.00
2018-07-24T00:35:57.736Z,1.00
2018-07-24T00:38:25.939Z,1.00
2018-07-24T00:40:54.098Z,1.00
2018-07-24T00:43:22.435Z,1.00
2018-07-24T00:45:50.568Z,1.00
2018-07-24T00:48:18.723Z,1.00
2018-07-24T00:50:46.858Z,1.00
2018-07-24T00:53:14.975Z,1.00
2018-07-24T00:55:43.067Z,1.00
2018-07-24T00:58:11.267Z,1.00
2018-07-24T01:00:39.380Z,1.00
2018-07-24T01:03:07.542Z,1.00
2018-07-24T01:05:35.683Z,1.00
2018-07-24T01:08:03.827Z,1.00
2018-07-24T01:10:31.944Z,1.00
2018-07-24T01:13:00.144Z,1.00
2018-07-24T01:15:28.320Z,1.00
2018-07-24T01:17:56.495Z,1.00
2018-07-24T01:20:24.694Z,1.00
2018-07-24T01:22:52.815Z,1.00
2018-07-24T01:25:20.968Z,1.00
2018-07-24T01:27:49.111Z,1.00
2018-07-24T01:30:17.242Z,1.00
2018-07-24T01:32:45.365Z,1.00
2018-07-24T01:35:13.467Z,1.00
2018-07-24T01:37:41.629Z,1.00
2018-07-24T01:40:09.749Z,1.00
2018-07-24T01:42:37.956Z,1.00
2018-07-24T01:45:06.128Z,1.00
2018-07-24T01:47:34.244Z,1.00
2018-07-24T01:50:02.370Z,1.00
2018-07-24T01:52:30.529Z,1.00
2018-07-24T01:54:58.675Z,1.00
2018-07-24T01:57:26.822Z,1.00
2018-07-24T01:59:54.938Z,1.00
2018-07-24T02:02:23.071Z,1.80
2018-07-24T02:04:51.208Z,1.70
2018-07-24T02:07:19.367Z,1.60
2018-07-24T02:09:47.495Z,1.50
2018-07-24T02:12:15.628Z,1.10
2018-07-24T02:14:43.876Z,1.60
2018-07-24T02:17:12.580Z,1.50
2018-07-24T02:19:40.698Z,1.50
2018-07-24T02:22:09.672Z,1.50
2018-07-24T02:24:37.799Z,1.50
2018-07-24T02:27:06.012Z,1.50
2018-07-24T02:29:34.158Z,1.50
2018-07-24T02:32:02.303Z,2.90
2018-07-24T02:34:30.420Z,2.50
2018-07-24T02:36:58.594Z,2.60
2018-07-24T02:39:26.805Z,3.00
2018-07-24T02:41:54.960Z,3.10
2018-07-24T02:44:23.093Z,3.20
2018-07-24T02:46:51.224Z,4.20
2018-07-24T02:49:19.353Z,4.50
2018-07-24T02:51:47.516Z,3.80
2018-07-24T02:54:15.632Z,5.20
2018-07-24T02:56:43.753Z,5.80
2018-07-24T02:59:11.918Z,5.80
2018-07-24T03:01:40.042Z,5.70
2018-07-24T03:06:36.128Z,5.80
2018-07-24T03:09:06.363Z,6.50
2018-07-24T03:11:34.512Z,6.70
2018-07-24T03:14:02.682Z,7.20
2018-07-24T03:16:30.809Z,7.50
2018-07-24T03:18:58.940Z,6.40
2018-07-24T03:21:27.119Z,7.80
2018-07-24T03:23:55.268Z,8.20
2018-07-24T03:26:23.424Z,8.70
2018-07-24T03:28:51.564Z,8.90
2018-07-24T03:31:19.703Z,9.60
2018-07-24T03:33:47.891Z,11.20
2018-07-24T03:36:16.064Z,11.50
2018-07-24T03:38:44.185Z,10.40
2018-07-24T03:41:12.388Z,8.10
2018-07-24T03:43:40.549Z,10.30
2018-07-24T03:46:08.712Z,11.10
2018-07-24T03:48:36.835Z,12.10
2018-07-24T03:51:04.996Z,13.50
2018-07-24T03:53:33.133Z,14.00
2018-07-24T03:56:01.321Z,13.80
2018-07-24T03:58:29.532Z,13.90
2018-07-24T04:00:57.659Z,16.50
2018-07-24T04:03:25.806Z,16.50
2018-07-24T04:05:54.159Z,16.60
2018-07-24T04:08:22.331Z,17.20
2018-07-24T04:10:50.481Z,16.20
2018-07-24T04:13:18.666Z,16.80
2018-07-24T04:15:46.847Z,16.10
2018-07-24T04:18:15.053Z,15.00
2018-07-24T04:20:43.184Z,16.00
2018-07-24T04:23:11.348Z,16.30
2018-07-24T04:25:39.542Z,16.40
2018-07-24T04:28:07.696Z,15.90
2018-07-24T04:30:35.865Z,16.10
2018-07-24T04:33:04.017Z,16.40
2018-07-24T04:35:32.213Z,16.20
2018-07-24T04:38:00.401Z,16.30
2018-07-24T04:40:28.543Z,16.20
2018-07-24T04:45:24.575Z,16.50
2018-07-24T04:47:52.731Z,15.30
2018-07-24T04:50:20.877Z,16.30
2018-07-24T04:55:17.051Z,16.30
2018-07-24T04:57:45.190Z,14.40
2018-07-24T05:00:13.347Z,13.00
2018-07-24T05:02:41.591Z,14.80
2018-07-24T05:05:09.684Z,13.30
2018-07-24T05:07:37.886Z,12.60
2018-07-24T05:10:06.220Z,12.60
2018-07-24T05:12:34.362Z,6.70
2018-07-24T05:15:02.484Z,6.10
2018-07-24T05:17:30.634Z,7.80
2018-07-24T05:19:59.088Z,8.40
2018-07-24T05:22:27.400Z,8.40
2018-07-24T05:24:55.555Z,6.00
2018-07-24T05:27:23.731Z,6.80
2018-07-24T05:29:51.852Z,5.40
2018-07-24T05:32:20.040Z,7.30
2018-07-24T05:34:48.210Z,5.10
2018-07-24T05:37:16.374Z,5.20
2018-07-24T05:39:44.521Z,6.80
2018-07-24T05:42:12.687Z,7.50
2018-07-24T05:44:40.813Z,4.50
2018-07-24T05:47:08.979Z,4.90
2018-07-24T05:49:37.111Z,6.80
2018-07-24T05:52:05.302Z,2.80
2018-07-24T05:54:33.424Z,5.50
2018-07-24T05:57:01.571Z,5.70
2018-07-24T06:01:57.643Z,3.40
2018-07-24T06:04:25.820Z,3.70
2018-07-24T06:06:53.985Z,2.70
2018-07-24T06:09:22.148Z,1.00
2018-07-24T06:11:50.264Z,1.00
2018-07-24T06:14:18.434Z,1.00
2018-07-24T06:16:46.637Z,1.00
2018-07-24T06:19:14.685Z,1.00
2018-07-24T06:21:42.886Z,1.00
2018-07-24T06:24:11.000Z,1.00
2018-07-24T06:26:39.127Z,1.00
2018-07-24T06:29:07.352Z,1.00
2018-07-24T06:31:35.416Z,1.00
2018-07-24T06:38:59.583Z,1.00
2018-07-24T06:41:27.766Z,1.00
2018-07-24T06:43:55.891Z,1.00
2018-07-24T06:46:24.024Z,1.00
2018-07-24T06:48:52.221Z,1.00
2018-07-24T06:51:20.490Z,1.00
2018-07-24T06:53:48.523Z,1.00
2018-07-24T06:56:16.647Z,1.00
2018-07-24T06:58:44.775Z,1.00
2018-07-24T07:01:12.903Z,1.00
2018-07-24T07:03:41.122Z,1.00
2018-07-24T07:06:09.250Z,1.00
2018-07-24T07:08:37.404Z,1.00
2018-07-24T07:11:05.540Z,1.00
2018-07-24T07:13:33.748Z,1.00
2018-07-24T07:16:01.937Z,1.00
2018-07-24T07:18:30.184Z,1.00
2018-07-24T07:20:58.309Z,1.00
2018-07-24T07:23:26.530Z,1.00
2018-07-24T07:25:54.621Z,1.00
2018-07-24T07:28:22.960Z,1.00
2018-07-24T07:30:51.098Z,1.00
2018-07-24T07:33:19.223Z,1.00
2018-07-24T07:35:47.377Z,1.00
2018-07-24T07:38:15.515Z,1.00
2018-07-24T07:40:43.663Z,1.00
2018-07-24T07:43:11.845Z,1.00
2018-07-24T07:45:40.001Z,1.00
2018-07-24T07:48:08.151Z,1.00
2018-07-24T07:50:36.305Z,1.00
2018-07-24T07:53:04.395Z,1.00
2018-07-24T07:55:32.671Z,1.00
2018-07-24T07:58:00.823Z,1.00
2018-07-24T08:00:29.004Z,1.00
2018-07-24T08:02:57.172Z,1.00
2018-07-24T08:05:25.369Z,1.00
2018-07-24T08:07:53.528Z,1.00
2018-07-24T08:10:21.680Z,1.00
2018-07-24T08:12:49.847Z,1.00
2018-07-24T08:15:17.965Z,1.00
2018-07-24T08:17:46.098Z,1.00
2018-07-24T08:20:14.212Z,1.00
2018-07-24T08:22:42.393Z,1.00
2018-07-24T08:25:10.559Z,1.00
2018-07-24T08:27:38.707Z,1.00
2018-07-24T08:30:06.836Z,1.00
2018-07-24T08:32:34.959Z,1.00
2018-07-24T08:35:03.088Z,1.00
2018-07-24T08:37:31.427Z,1.00
2018-07-24T08:39:59.527Z,1.00
2018-07-24T08:42:27.677Z,1.00
2018-07-24T08:44:55.820Z,1.00
2018-07-24T08:47:23.984Z,1.00
2018-07-24T08:49:52.091Z,1.00
2018-07-24T08:52:20.307Z,1.00
2018-07-24T08:54:48.624Z,1.00
2018-07-24T08:57:16.564Z,1.00
2018-07-24T08:59:44.682Z,1.00
2018-07-24T09:02:12.801Z,1.00
2018-07-24T09:04:40.968Z,1.00
2018-07-24T09:07:09.135Z,1.00
2018-07-24T09:09:37.262Z,1.00
2018-07-24T09:12:05.375Z,1.00
2018-07-24T09:14:33.724Z,1.00
2018-07-24T09:17:01.885Z,1.00
2018-07-24T09:19:30.003Z,1.00
2018-07-24T09:21:58.853Z,1.00
2018-07-24T09:24:27.061Z,1.00
2018-07-24T09:26:55.362Z,1.00
2018-07-24T09:29:23.523Z,1.00
2018-07-24T09:31:51.797Z,1.00
2018-07-24T09:34:19.956Z,1.00
2018-07-24T09:36:48.228Z,1.00
2018-07-24T09:39:16.406Z,1.00
2018-07-24T09:41:44.603Z,1.00
2018-07-24T09:44:12.711Z,1.00
2018-07-24T09:46:40.868Z,1.00
2018-07-24T09:49:09.002Z,1.00
2018-07-24T09:51:37.140Z,1.00
2018-07-24T09:54:05.337Z,1.00
2018-07-24T09:56:33.466Z,1.00
2018-07-24T09:59:01.893Z,1.00
2018-07-24T10:01:33.986Z,1.00
2018-07-24T10:04:03.055Z,1.00
2018-07-24T10:06:32.090Z,1.00
2018-07-24T10:09:00.239Z,1.00
2018-07-24T10:11:28.407Z,1.00
2018-07-24T10:13:56.567Z,1.00
2018-07-24T10:16:24.763Z,1.00
2018-07-24T10:18:52.878Z,1.00
2018-07-24T10:21:21.021Z,1.00
2018-07-24T10:23:49.186Z,1.00
2018-07-24T10:26:17.364Z,1.00
2018-07-24T10:28:45.623Z,1.00
2018-07-24T10:31:13.798Z,1.00
2018-07-24T10:33:41.939Z,1.00
2018-07-24T10:36:10.118Z,1.00
2018-07-24T10:38:38.322Z,1.00
2018-07-24T10:41:06.667Z,1.00
2018-07-24T10:43:35.084Z,1.00
2018-07-24T10:46:03.344Z,1.00
2018-07-24T10:48:31.479Z,1.00
2018-07-24T10:50:59.603Z,1.00
2018-07-24T10:53:27.742Z,1.00
2018-07-24T10:55:55.855Z,1.00
2018-07-24T10:58:24.001Z,1.00
2018-07-24T11:00:52.148Z,1.00
2018-07-24T11:03:20.314Z,1.00
2018-07-24T11:05:48.466Z,1.00
2018-07-24T11:08:16.585Z,1.00
2018-07-24T11:10:45.805Z,1.00
2018-07-24T11:13:13.957Z,1.00
2018-07-24T11:15:42.094Z,1.00
2018-07-24T11:18:10.202Z,1.00
2018-07-24T11:20:38.355Z,1.00
2018-07-24T11:23:06.583Z,1.00
2018-07-24T11:25:34.633Z,1.00
2018-07-24T11:28:02.857Z,1.00
2018-07-24T11:32:59.029Z,1.00
2018-07-24T11:35:27.324Z,1.00
2018-07-24T11:37:55.436Z,1.00
2018-07-24T11:40:23.616Z,1.00
2018-07-24T11:42:51.899Z,1.00
2018-07-24T11:45:20.038Z,1.00
2018-07-24T11:47:48.126Z,1.00
2018-07-24T11:50:16.234Z,1.00
2018-07-24T11:52:44.403Z,1.00
2018-07-24T11:55:12.578Z,1.00
2018-07-24T11:57:40.744Z,1.00
2018-07-24T12:00:08.812Z,1.00
2018-07-24T12:02:37.023Z,1.00
2018-07-24T12:05:05.471Z,1.00
2018-07-24T12:07:33.631Z,1.00
2018-07-24T12:10:01.811Z,1.00
2018-07-24T12:12:30.386Z,1.00
2018-07-24T12:14:58.673Z,1.00
2018-07-24T12:17:26.948Z,1.00
2018-07-24T12:19:55.112Z,1.00
2018-07-24T12:22:23.279Z,1.00
2018-07-24T12:24:51.443Z,1.00
2018-07-24T12:27:19.577Z,1.00
2018-07-24T12:29:47.755Z,1.00
2018-07-24T12:32:15.933Z,1.00
2018-07-24T12:34:44.103Z,1.00
2018-07-24T12:37:12.873Z,1.00
2018-07-24T12:39:41.036Z,1.00
2018-07-24T12:42:09.210Z,1.00
2018-07-24T12:44:37.373Z,1.00
2018-07-24T12:47:05.542Z,1.00
2018-07-24T12:49:33.704Z,1.00
2018-07-24T12:52:01.853Z,1.00
2018-07-24T12:54:30.007Z,1.00
2018-07-24T12:56:58.216Z,1.00
2018-07-24T12:59:26.403Z,1.00
2018-07-24T13:01:54.528Z,1.00
2018-07-24T13:04:22.703Z,1.00
2018-07-24T13:06:50.872Z,1.00
2018-07-24T13:09:19.004Z,1.00
2018-07-24T13:11:47.147Z,1.00
2018-07-24T13:14:15.294Z,1.00
2018-07-24T13:16:43.444Z,1.00
2018-07-24T13:19:11.605Z,1.00
2018-07-24T13:21:39.897Z,1.00
2018-07-24T13:24:08.028Z,1.00
2018-07-24T13:26:36.223Z,1.00
2018-07-24T13:29:04.371Z,1.00
2018-07-24T13:31:32.500Z,1.00
2018-07-24T13:34:00.688Z,1.00
2018-07-24T13:36:28.823Z,1.00
2018-07-24T13:38:57.007Z,1.00
2018-07-24T13:41:25.160Z,1.00
2018-07-24T13:43:53.358Z,1.00
2018-07-24T13:46:21.478Z,1.00
2018-07-24T13:48:49.626Z,1.00
2018-07-24T13:53:45.748Z,1.00
2018-07-24T13:56:13.955Z,1.00
2018-07-24T13:58:42.090Z,1.00
2018-07-24T14:01:10.205Z,1.00
2018-07-24T14:03:38.375Z,1.00
2018-07-24T14:06:06.568Z,1.00
2018-07-24T14:08:34.699Z,1.00
2018-07-24T14:11:02.891Z,1.00
2018-07-24T14:13:31.017Z,1.00
2018-07-24T14:15:59.154Z,1.00
2018-07-24T14:18:27.303Z,1.00
2018-07-24T14:20:55.475Z,1.00
2018-07-24T14:23:23.609Z,1.00
2018-07-24T14:25:51.722Z,1.00
2018-07-24T14:28:19.855Z,1.00
2018-07-24T14:30:48.056Z,1.00
2018-07-24T14:33:16.159Z,1.00
2018-07-24T14:35:44.301Z,1.00
2018-07-24T14:38:12.508Z,1.00
2018-07-24T14:40:40.763Z,1.00
2018-07-24T14:43:08.891Z,1.00
2018-07-24T14:45:37.035Z,1.00
2018-07-24T14:48:05.284Z,1.00
2018-07-24T14:50:33.461Z,1.00
2018-07-24T14:53:01.580Z,1.00
2018-07-24T14:55:30.028Z,1.00
2018-07-24T14:57:58.254Z,1.00
2018-07-24T15:00:26.432Z,1.00
2018-07-24T15:02:54.531Z,1.00
2018-07-24T15:05:22.714Z,1.00
2018-07-24T15:07:50.922Z,1.00
2018-07-24T15:10:19.048Z,1.00
2018-07-24T15:12:47.308Z,1.00
2018-07-24T15:15:15.444Z,1.00
2018-07-24T15:17:43.685Z,1.00
2018-07-24T15:20:11.943Z,1.00
2018-07-24T15:22:39.972Z,1.00
2018-07-24T15:25:08.123Z,1.00
2018-07-24T15:27:36.277Z,1.00
2018-07-24T15:30:05.895Z,1.00
2018-07-24T15:32:38.229Z,1.00
2018-07-24T15:35:06.880Z,1.00
2018-07-24T15:37:35.758Z,1.00
2018-07-24T15:40:05.245Z,1.00
2018-07-24T15:42:33.808Z,1.00
2018-07-24T15:45:01.974Z,1.00
2018-07-24T15:47:30.116Z,1.00
2018-07-24T15:49:58.322Z,1.00
2018-07-24T15:52:26.636Z,1.00
2018-07-24T15:54:54.925Z,1.00
2018-07-24T15:57:23.078Z,1.00
2018-07-24T15:59:51.254Z,1.00
2018-07-24T16:02:19.453Z,1.00
2018-07-24T16:04:47.612Z,1.00
2018-07-24T16:07:15.754Z,1.00
2018-07-24T16:09:43.919Z,1.00
2018-07-24T16:12:12.047Z,1.00
2018-07-24T16:14:40.251Z,1.00
2018-07-24T16:17:08.770Z,1.00
2018-07-24T16:19:37.481Z,1.00
2018-07-24T16:22:05.633Z,1.00
2018-07-24T16:24:33.820Z,1.00
2018-07-24T16:27:03.876Z,1.00
2018-07-24T16:29:32.083Z,1.00
2018-07-24T16:32:00.281Z,1.00
2018-07-24T16:34:28.480Z,1.00
2018-07-24T16:36:56.625Z,1.00
2018-07-24T16:39:24.807Z,1.00
2018-07-24T16:41:53.000Z,1.00
2018-07-24T16:44:21.162Z,1.00
2018-07-24T16:46:49.339Z,1.00
2018-07-24T16:49:17.576Z,1.00
2018-07-24T16:51:45.906Z,1.00
2018-07-24T16:54:14.070Z,1.00
2018-07-24T16:56:42.315Z,1.00
2018-07-24T16:59:10.719Z,1.00
2018-07-24T17:01:38.843Z,1.00
2018-07-24T17:04:07.041Z,1.00
2018-07-24T17:06:35.182Z,1.00
2018-07-24T17:09:03.574Z,1.00
2018-07-24T17:11:31.733Z,1.00
2018-07-24T17:14:00.246Z,1.00
2018-07-24T17:16:28.296Z,1.00
2018-07-24T17:21:24.439Z,1.00
2018-07-24T17:23:52.596Z,1.00
2018-07-24T17:26:20.980Z,1.00
2018-07-24T17:28:50.176Z,1.00
2018-07-24T17:31:18.323Z,1.00
2018-07-24T17:33:46.537Z,1.00
2018-07-24T17:38:42.648Z,1.00
2018-07-24T17:41:10.882Z,1.00
2018-07-24T17:43:39.163Z,1.00
2018-07-24T17:46:07.671Z,1.00
2018-07-24T17:48:35.928Z,1.00
2018-07-24T17:51:05.097Z,1.00
2018-07-24T17:53:33.372Z,1.00
2018-07-24T17:56:01.480Z,1.00
2018-07-24T17:58:29.651Z,1.00
2018-07-24T18:00:57.858Z,1.00
2018-07-24T18:03:26.057Z,1.00
2018-07-24T18:05:55.060Z,1.00
2018-07-24T18:08:23.188Z,1.00
2018-07-24T18:10:51.333Z,1.00
2018-07-24T18:13:19.460Z,1.00
2018-07-24T18:15:47.689Z,1.00
2018-07-24T18:18:16.721Z,1.00
2018-07-24T18:20:44.923Z,1.00
2018-07-24T18:23:13.060Z,1.00
2018-07-24T18:25:41.181Z,1.00
2018-07-24T18:28:09.572Z,1.00
2018-07-24T18:30:37.713Z,1.00
2018-07-24T18:33:05.960Z,1.00
2018-07-24T18:35:34.139Z,1.00
2018-07-24T18:38:02.415Z,1.00
2018-07-24T18:40:30.606Z,1.00
2018-07-24T18:42:58.795Z,1.00
2018-07-24T18:45:26.961Z,1.00
2018-07-24T18:47:55.110Z,1.00
2018-07-24T18:50:23.337Z,1.00
2018-07-24T18:52:51.679Z,1.00
2018-07-24T18:55:19.843Z,1.00
2018-07-24T18:57:49.233Z,1.00
2018-07-24T19:00:17.412Z,1.00
2018-07-24T19:02:45.562Z,1.00
2018-07-24T19:05:13.800Z,1.00
2018-07-24T19:07:41.975Z,1.00
2018-07-24T19:10:10.126Z,1.00
2018-07-24T19:12:38.392Z,1.00
2018-07-24T19:15:07.586Z,1.00
2018-07-24T19:17:35.740Z,1.00
2018-07-24T19:20:04.243Z,1.00
2018-07-24T19:22:32.449Z,1.00
2018-07-24T19:25:00.632Z,1.00
2018-07-24T19:27:28.791Z,1.00
2018-07-24T19:29:57.463Z,1.00
2018-07-24T19:32:25.899Z,1.00
2018-07-24T19:34:54.094Z,1.00
2018-07-24T19:37:22.454Z,1.00
2018-07-24T19:39:50.652Z,1.00
2018-07-24T19:42:18.799Z,1.00
2018-07-24T19:44:46.961Z,1.00
2018-07-24T19:47:15.257Z,1.00
2018-07-24T19:49:43.426Z,1.00
2018-07-24T19:52:11.536Z,1.00
2018-07-24T19:54:39.711Z,1.00
2018-07-24T19:57:10.068Z,1.00
2018-07-24T19:59:38.293Z,1.00
2018-07-24T20:02:06.527Z,1.00
2018-07-24T20:04:34.680Z,1.00
2018-07-24T20:07:02.818Z,1.00
2018-07-24T20:09:31.143Z,1.00
2018-07-24T20:11:59.354Z,1.00
2018-07-24T20:14:27.715Z,1.00
2018-07-24T20:16:57.124Z,1.00
2018-07-24T20:19:25.434Z,1.00
2018-07-24T20:21:53.603Z,1.00
2018-07-24T20:24:21.794Z,1.00
2018-07-24T20:26:49.956Z,1.00
2018-07-24T20:29:18.129Z,1.00
2018-07-24T20:31:46.340Z,1.00
2018-07-24T20:34:14.475Z,1.00
2018-07-24T20:36:42.663Z,1.00
2018-07-24T20:39:12.367Z,1.00
2018-07-24T20:41:41.034Z,1.00
2018-07-24T20:44:09.467Z,1.00
2018-07-24T20:46:37.612Z,1.00
2018-07-24T20:49:05.991Z,1.00
2018-07-24T20:51:36.241Z,1.00
2018-07-24T20:54:04.463Z,1.00
2018-07-24T20:56:32.677Z,1.00
2018-07-24T20:59:00.876Z,1.00
2018-07-24T21:01:29.044Z,1.00
2018-07-24T21:03:57.173Z,1.00
2018-07-24T21:06:25.402Z,1.00
2018-07-24T21:08:53.572Z,1.00
2018-07-24T21:11:22.024Z,1.00
2018-07-24T21:13:50.228Z,1.00
2018-07-24T21:16:18.461Z,1.00
2018-07-24T21:18:46.625Z,1.00
2018-07-24T21:21:14.798Z,1.00
2018-07-24T21:23:42.943Z,1.00
2018-07-24T21:26:11.116Z,1.00
2018-07-24T21:28:39.371Z,1.00
2018-07-24T21:31:07.705Z,1.00
2018-07-24T21:33:35.943Z,1.00
2018-07-24T21:36:04.079Z,1.00
2018-07-24T21:38:32.325Z,1.00
2018-07-24T21:41:00.467Z,1.00
2018-07-24T21:43:28.679Z,1.00
2018-07-24T21:45:56.882Z,1.00
2018-07-24T21:48:25.056Z,1.00
2018-07-24T21:50:53.196Z,1.00
2018-07-24T21:53:21.343Z,1.00
2018-07-24T21:55:49.510Z,1.00
2018-07-24T21:58:17.635Z,1.00
2018-07-24T22:00:45.846Z,1.00
2018-07-24T22:03:14.191Z,1.00
2018-07-24T22:05:42.435Z,1.00
2018-07-24T22:10:38.480Z,1.00
2018-07-24T22:13:06.614Z,1.00
2018-07-24T22:15:34.846Z,1.00
2018-07-24T22:18:03.079Z,1.00
2018-07-24T22:20:31.222Z,1.00
2018-07-24T22:22:59.360Z,1.00
2018-07-24T22:25:27.483Z,1.00
2018-07-24T22:27:55.629Z,1.00
2018-07-24T22:30:23.795Z,1.00
2018-07-24T22:32:51.936Z,1.00
2018-07-24T22:35:20.063Z,1.00
2018-07-24T22:37:48.212Z,1.00
2018-07-24T22:40:16.387Z,1.00
2018-07-24T22:42:44.568Z,1.00
2018-07-24T22:45:12.738Z,1.00
2018-07-24T22:47:40.882Z,1.00
2018-07-24T22:50:09.078Z,1.00
2018-07-24T22:52:37.355Z,1.00
2018-07-24T22:55:05.621Z,1.00
2018-07-24T22:57:33.824Z,1.00
2018-07-24T23:00:01.975Z,1.00
2018-07-24T23:02:30.138Z,1.00
2018-07-24T23:04:58.313Z,1.00
2018-07-24T23:09:54.407Z,1.00
2018-07-24T23:12:22.547Z,1.00
2018-07-24T23:14:50.692Z,1.00
2018-07-24T23:17:18.915Z,1.00
2018-07-24T23:19:47.082Z,1.00
2018-07-24T23:22:15.258Z,1.00
2018-07-24T23:24:43.400Z,1.00
2018-07-24T23:27:11.537Z,1.00
2018-07-24T23:29:39.765Z,1.00
2018-07-24T23:32:07.927Z,1.00
2018-07-24T23:34:36.110Z,1.00
2018-07-24T23:37:04.242Z,1.00
2018-07-24T23:39:32.378Z,1.00
2018-07-24T23:42:00.548Z,1.00
2018-07-24T23:44:28.738Z,1.00
2018-07-24T23:46:57.033Z,1.00
2018-07-24T23:49:25.104Z,1.00
2018-07-24T23:51:53.252Z,1.00
2018-07-24T23:54:21.385Z,1.00
2018-07-24T23:56:49.571Z,1.00
2018-07-24T23:59:17.716Z,1.00
